Time;durP1;ratioP1;P1;durP2;ratioP2;P2;SDS_P1;SDS_P2;PMS_P1;PMS_P2;Temp;Humidity;BMP_temperature;BMP_pressure;BME280_temperature;BME280_humidity;BME280_pressure;Samples;Min_cycle;Max_cycle;Signal;HPM_P1;HPM_P2
2021/12/31 00:01:14;;;;;;;43.23;18.70;;;20.10;56.20;;;;;;5018353;28;20176;-72
2021/12/31 00:03:39;;;;;;;48.67;19.13;;;20.00;64.00;;;;;;5024037;28;20190;-72
2021/12/31 00:06:06;;;;;;;42.67;19.90;;;20.10;56.20;;;;;;5016687;28;20652;-72
2021/12/31 00:08:31;;;;;;;47.77;19.87;;;20.20;56.40;;;;;;5023587;28;20271;-72
2021/12/31 00:10:59;;;;;;;51.03;21.90;;;20.10;56.30;;;;;;5019328;28;20434;-72
2021/12/31 00:13:27;;;;;;;49.33;20.07;;;20.10;56.30;;;;;;5013215;28;20182;-72
2021/12/31 00:15:52;;;;;;;44.80;20.53;;;20.10;56.30;;;;;;5014275;28;20618;-72
2021/12/31 00:18:18;;;;;;;58.40;23.27;;;20.10;56.30;;;;;;5015972;28;20518;-72
2021/12/31 00:20:44;;;;;;;61.80;23.80;;;20.10;56.30;;;;;;5015696;28;20206;-73
2021/12/31 00:23:12;;;;;;;56.60;22.80;;;20.10;56.30;;;;;;5013350;28;20523;-72
2021/12/31 00:25:42;;;;;;;55.10;22.10;;;20.10;56.30;;;;;;5016735;28;20196;-72
2021/12/31 00:28:09;;;;;;;56.83;25.30;;;20.30;56.50;;;;;;5019963;28;20419;-73
2021/12/31 00:30:37;;;;;;;55.00;24.97;;;20.10;56.40;;;;;;5012319;28;20447;-73
2021/12/31 00:33:03;;;;;;;57.30;24.60;;;20.10;56.40;;;;;;5024248;28;20412;-73
2021/12/31 00:35:30;;;;;;;57.27;24.40;;;20.10;56.40;;;;;;5025430;28;20443;-72
2021/12/31 00:37:57;;;;;;;60.87;24.37;;;20.10;56.40;;;;;;5029367;28;20468;-73
2021/12/31 00:40:23;;;;;;;61.47;23.80;;;20.10;56.40;;;;;;5031506;28;20430;-73
2021/12/31 00:42:49;;;;;;;61.57;25.87;;;20.10;56.40;;;;;;5025587;28;20410;-73
2021/12/31 00:45:17;;;;;;;50.53;23.57;;;20.10;56.40;;;;;;5025338;28;20669;-73
2021/12/31 00:47:43;;;;;;;67.07;27.00;;;20.10;56.40;;;;;;5026860;28;20424;-73
2021/12/31 00:50:10;;;;;;;65.40;25.83;;;20.10;56.40;;;;;;5023939;28;20441;-72
2021/12/31 00:52:36;;;;;;;57.27;23.47;;;20.10;56.50;;;;;;5028767;28;20200;-72
2021/12/31 00:55:02;;;;;;;54.37;24.57;;;;;;;;;;5024981;28;20564;-72
2021/12/31 00:57:28;;;;;;;58.03;23.97;;;21.50;56.60;;;;;;5015398;28;20272;-72
2021/12/31 00:59:53;;;;;;;56.63;27.50;;;20.10;57.00;;;;;;5017089;28;20521;-73
2021/12/31 01:02:21;;;;;;;58.13;24.50;;;20.10;56.40;;;;;;5026262;28;20282;-74
2021/12/31 01:04:47;;;;;;;64.47;24.83;;;20.00;56.80;;;;;;5023737;28;20184;-72
2021/12/31 01:07:13;;;;;;;55.47;24.97;;;20.60;56.70;;;;;;5024576;28;20415;-73
2021/12/31 01:09:38;;;;;;;55.00;24.47;;;20.10;56.40;;;;;;5024670;28;20177;-72
2021/12/31 01:12:07;;;;;;;58.80;25.87;;;;;;;;;;5018949;28;20263;-72
2021/12/31 01:14:43;;;;;;;55.50;23.60;;;21.50;56.70;;;;;;5017974;28;20196;-72
2021/12/31 01:17:13;;;;;;;55.10;23.10;;;20.00;56.40;;;;;;5020035;28;20495;-72
2021/12/31 01:19:46;;;;;;;58.17;25.07;;;20.00;56.40;;;;;;5017849;28;20505;-72
2021/12/31 01:22:25;;;;;;;68.30;28.10;;;20.00;56.40;;;;;;5014117;28;20570;-72
2021/12/31 01:24:54;;;;;;;58.77;26.20;;;20.00;57.00;;;;;;5019061;28;21125;-72
2021/12/31 01:27:20;;;;;;;64.13;25.93;;;20.10;56.50;;;;;;5015583;28;20451;-72
2021/12/31 01:29:46;;;;;;;58.00;25.33;;;20.00;56.40;;;;;;5022856;28;20432;-72
2021/12/31 01:32:12;;;;;;;52.23;23.70;;;20.00;56.40;;;;;;5026907;28;20177;-72
2021/12/31 01:34:37;;;;;;;65.47;25.33;;;20.00;56.40;;;;;;5031727;28;20446;-72
2021/12/31 01:37:03;;;;;;;58.50;26.37;;;20.10;56.50;;;;;;5034135;28;20944;-72
2021/12/31 01:39:30;;;;;;;59.83;26.33;;;20.00;56.40;;;;;;5026256;28;20816;-72
2021/12/31 01:41:58;;;;;;;58.90;24.43;;;20.00;56.40;;;;;;5024875;28;20620;-73
2021/12/31 01:44:29;;;;;;;61.90;25.83;;;20.00;56.40;;;;;;5025869;28;20554;-73
2021/12/31 01:47:00;;;;;;;58.33;25.00;;;20.00;56.40;;;;;;5024151;28;20418;-72
2021/12/31 01:49:33;;;;;;;55.47;24.30;;;20.00;56.40;;;;;;5025686;28;20499;-72
2021/12/31 01:51:59;;;;;;;57.00;23.83;;;20.00;56.40;;;;;;5027402;28;20522;-73
2021/12/31 01:54:25;;;;;;;49.23;21.70;;;19.70;56.20;;;;;;5021081;28;20523;-72
2021/12/31 01:56:53;;;;;;;51.70;23.00;;;20.00;56.40;;;;;;5013054;28;20223;-72
2021/12/31 01:59:19;;;;;;;60.23;23.27;;;20.00;56.50;;;;;;5021333;28;20183;-72
2021/12/31 02:01:45;;;;;;;58.27;24.33;;;20.20;56.60;;;;;;5020878;28;20404;-71
2021/12/31 02:04:11;;;;;;;54.47;24.73;;;20.00;56.40;;;;;;5019134;28;20616;-72
2021/12/31 02:06:37;;;;;;;51.73;22.27;;;20.00;56.50;;;;;;5021384;28;20522;-72
2021/12/31 02:09:05;;;;;;;53.87;24.33;;;20.00;56.40;;;;;;5020505;28;20207;-72
2021/12/31 02:11:31;;;;;;;62.67;23.70;;;20.00;56.40;;;;;;5028965;28;20561;-73
2021/12/31 02:13:57;;;;;;;59.07;23.73;;;19.90;68.40;;;;;;5030017;28;20469;-72
2021/12/31 02:16:24;;;;;;;53.53;21.93;;;20.00;56.50;;;;;;5027869;28;20228;-72
2021/12/31 02:18:50;;;;;;;51.37;21.63;;;20.00;56.50;;;;;;5027649;28;20568;-72
2021/12/31 02:21:16;;;;;;;50.10;23.20;;;20.00;56.50;;;;;;5022032;28;20419;-72
2021/12/31 02:23:45;;;;;;;50.20;22.03;;;19.80;68.00;;;;;;5029568;28;20915;-72
2021/12/31 02:26:11;;;;;;;51.80;20.90;;;20.00;56.50;;;;;;5029850;28;20411;-72
2021/12/31 02:28:37;;;;;;;47.17;21.33;;;20.00;56.50;;;;;;5028276;28;20555;-72
2021/12/31 02:31:03;;;;;;;49.30;21.87;;;20.00;56.50;;;;;;5026335;28;20880;-72
2021/12/31 02:33:33;;;;;;;49.70;21.43;;;20.00;56.50;;;;;;5025462;28;20415;-72
2021/12/31 02:36:01;;;;;;;48.40;22.00;;;20.00;56.60;;;;;;5025268;28;20518;-72
2021/12/31 02:38:27;;;;;;;55.70;22.07;;;20.00;56.50;;;;;;5029272;28;20753;-72
2021/12/31 02:40:53;;;;;;;48.37;21.73;;;20.00;56.50;;;;;;5022654;28;20442;-72
2021/12/31 02:43:19;;;;;;;52.17;21.80;;;20.00;56.50;;;;;;5022365;28;20466;-73
2021/12/31 02:45:44;;;;;;;47.87;21.70;;;20.00;56.50;;;;;;5015735;28;20198;-73
2021/12/31 02:48:10;;;;;;;44.30;21.80;;;20.00;56.50;;;;;;5017821;28;20283;-72
2021/12/31 02:50:42;;;;;;;50.47;20.70;;;20.00;56.50;;;;;;5017007;28;21052;-72
2021/12/31 02:53:13;;;;;;;44.40;19.77;;;20.00;56.50;;;;;;5017481;28;20711;-73
2021/12/31 02:55:42;;;;;;;46.57;20.40;;;20.00;56.50;;;;;;5016157;28;20481;-72
2021/12/31 02:58:09;;;;;;;46.03;18.90;;;19.90;56.50;;;;;;5016746;28;20969;-72
2021/12/31 03:00:38;;;;;;;43.40;19.40;;;18.40;55.70;;;;;;5019405;28;20528;-72
2021/12/31 03:03:06;;;;;;;37.43;18.80;;;19.90;56.50;;;;;;5015987;28;20477;-73
2021/12/31 03:05:34;;;;;;;43.53;20.00;;;19.90;56.50;;;;;;5015213;28;20476;-72
2021/12/31 03:08:03;;;;;;;40.80;19.03;;;20.00;56.60;;;;;;5018445;28;20414;-72
2021/12/31 03:10:29;;;;;;;41.33;17.50;;;19.90;56.50;;;;;;5022929;28;20411;-72
2021/12/31 03:12:56;;;;;;;39.90;17.20;;;19.90;56.50;;;;;;5021513;28;20439;-72
2021/12/31 03:15:24;;;;;;;48.20;20.07;;;19.90;56.50;;;;;;5021081;28;20743;-72
2021/12/31 03:17:50;;;;;;;36.17;17.03;;;19.90;56.60;;;;;;5020044;28;20460;-72
2021/12/31 03:20:25;;;;;;;44.77;19.43;;;20.10;56.60;;;;;;5018384;28;20431;-72
2021/12/31 03:22:52;;;;;;;36.07;16.83;;;19.90;56.50;;;;;;5021774;28;20418;-72
2021/12/31 03:25:18;;;;;;;40.77;18.07;;;19.90;56.50;;;;;;5019515;28;20486;-72
2021/12/31 03:27:43;;;;;;;39.63;17.00;;;19.90;56.50;;;;;;5017234;28;20454;-72
2021/12/31 03:30:11;;;;;;;35.40;16.57;;;19.90;56.50;;;;;;5019219;28;20200;-72
2021/12/31 03:32:37;;;;;;;36.17;16.53;;;19.90;56.50;;;;;;5017416;28;20180;-72
2021/12/31 03:35:03;;;;;;;37.07;18.87;;;19.90;56.60;;;;;;5018911;28;20488;-72
2021/12/31 03:37:28;;;;;;;38.07;18.13;;;19.90;56.60;;;;;;5018729;28;20460;-72
2021/12/31 03:39:54;;;;;;;40.97;18.53;;;19.90;56.60;;;;;;5017448;28;20170;-72
2021/12/31 03:42:20;;;;;;;40.87;17.50;;;20.00;56.60;;;;;;5018132;28;20181;-72
2021/12/31 03:44:46;;;;;;;36.47;16.10;;;19.90;56.60;;;;;;5014931;28;20207;-72
2021/12/31 03:47:12;;;;;;;35.40;16.67;;;19.90;56.60;;;;;;5013907;28;20419;-72
2021/12/31 03:49:37;;;;;;;36.87;17.00;;;19.90;56.50;;;;;;5023053;28;20912;-72
2021/12/31 03:52:03;;;;;;;31.83;16.00;;;19.90;56.50;;;;;;5019959;28;20192;-72
2021/12/31 03:54:29;;;;;;;39.13;18.07;;;19.90;57.10;;;;;;5020761;28;20223;-72
2021/12/31 03:56:54;;;;;;;33.00;15.03;;;19.90;56.50;;;;;;5021595;28;20455;-72
2021/12/31 03:59:20;;;;;;;38.10;15.80;;;19.90;56.50;;;;;;5014772;28;20620;-72
2021/12/31 04:01:46;;;;;;;35.07;16.13;;;20.20;56.70;;;;;;5017218;28;20669;-73
2021/12/31 04:04:12;;;;;;;37.13;15.50;;;19.90;56.60;;;;;;5019613;28;20201;-72
2021/12/31 04:06:38;;;;;;;31.60;15.33;;;19.90;56.60;;;;;;5016229;28;20737;-72
2021/12/31 04:09:04;;;;;;;29.53;14.90;;;19.90;56.60;;;;;;5024000;28;20491;-72
2021/12/31 04:11:29;;;;;;;43.97;17.20;;;19.90;56.60;;;;;;5009540;28;20269;-72
2021/12/31 04:13:55;;;;;;;36.50;15.40;;;19.90;68.20;;;;;;5022595;28;20183;-72
2021/12/31 04:16:20;;;;;;;28.40;14.30;;;19.90;56.60;;;;;;5031603;28;20510;-72
2021/12/31 04:18:46;;;;;;;27.30;14.03;;;19.90;56.60;;;;;;5030657;28;20605;-72
2021/12/31 04:21:15;;;;;;;32.80;14.20;;;19.90;56.60;;;;;;5021665;28;20174;-72
2021/12/31 04:23:50;;;;;;;28.47;13.90;;;19.90;63.70;;;;;;5025552;28;20173;-72
2021/12/31 04:26:16;;;;;;;34.63;14.03;;;19.90;56.60;;;;;;5029376;28;20426;-72
2021/12/31 04:28:41;;;;;;;24.10;14.00;;;20.00;56.70;;;;;;5027505;28;20939;-72
2021/12/31 04:31:07;;;;;;;33.93;13.93;;;19.90;56.70;;;;;;5017351;28;20477;-71
2021/12/31 04:33:32;;;;;;;33.30;15.23;;;19.90;56.60;;;;;;5033173;28;20709;-72
2021/12/31 04:35:58;;;;;;;27.13;13.17;;;19.90;56.60;;;;;;5031832;28;20567;-72
2021/12/31 04:38:24;;;;;;;29.47;13.83;;;19.90;56.60;;;;;;5024123;28;20256;-72
2021/12/31 04:40:50;;;;;;;26.83;13.50;;;19.90;56.60;;;;;;5028909;28;20414;-72
2021/12/31 04:43:15;;;;;;;30.17;13.33;;;19.90;56.60;;;;;;5023485;28;20173;-72
2021/12/31 04:45:41;;;;;;;35.57;14.10;;;20.00;56.80;;;;;;5019636;28;20582;-72
2021/12/31 04:48:07;;;;;;;31.90;13.80;;;19.90;56.60;;;;;;5023370;28;20196;-72
2021/12/31 04:50:32;;;;;;;31.63;14.10;;;19.90;56.60;;;;;;5020148;28;20181;-72
2021/12/31 04:52:58;;;;;;;27.87;12.87;;;19.90;56.60;;;;;;5022467;28;20196;-71
2021/12/31 04:55:23;;;;;;;28.63;13.23;;;19.90;56.60;;;;;;5023098;28;20196;-72
2021/12/31 04:57:49;;;;;;;25.50;14.30;;;19.90;56.60;;;;;;5020795;28;20227;-72
2021/12/31 05:00:16;;;;;;;27.30;12.67;;;19.90;56.60;;;;;;5020590;28;20181;-72
2021/12/31 05:02:41;;;;;;;27.97;12.70;;;19.90;56.60;;;;;;5022964;28;20173;-73
2021/12/31 05:05:07;;;;;;;25.77;11.87;;;19.90;56.60;;;;;;5022939;28;20617;-72
2021/12/31 05:07:33;;;;;;;24.53;12.50;;;19.90;56.70;;;;;;5021561;28;20499;-72
2021/12/31 05:09:58;;;;;;;20.40;12.03;;;19.90;56.60;;;;;;5020135;28;20247;-72
2021/12/31 05:12:28;;;;;;;31.70;12.43;;;19.90;56.60;;;;;;5024361;28;20718;-72
2021/12/31 05:14:54;;;;;;;26.00;13.00;;;19.90;56.70;;;;;;5021353;28;20844;-72
2021/12/31 05:17:20;;;;;;;25.87;12.23;;;19.80;56.60;;;;;;5024985;28;20875;-72
2021/12/31 05:19:46;;;;;;;24.97;11.97;;;19.90;56.70;;;;;;5023067;28;20916;-72
2021/12/31 05:22:12;;;;;;;26.37;11.80;;;19.80;56.60;;;;;;5020698;28;20184;-72
2021/12/31 05:24:37;;;;;;;25.47;11.13;;;19.90;56.60;;;;;;5023551;28;20197;-72
2021/12/31 05:27:04;;;;;;;25.10;11.70;;;19.90;56.80;;;;;;5023848;28;20419;-72
2021/12/31 05:29:29;;;;;;;27.03;10.83;;;19.90;56.70;;;;;;5021305;28;20208;-72
2021/12/31 05:31:55;;;;;;;25.30;11.90;;;19.90;56.70;;;;;;5018178;28;20421;-72
2021/12/31 05:34:21;;;;;;;18.97;9.90;;;19.90;56.60;;;;;;5021384;28;20581;-72
2021/12/31 05:36:48;;;;;;;21.73;10.67;;;19.90;56.60;;;;;;5018201;28;20287;-72
2021/12/31 05:39:14;;;;;;;25.53;12.10;;;20.30;56.90;;;;;;5020855;28;20208;-72
2021/12/31 05:41:40;;;;;;;20.33;9.97;;;19.90;56.60;;;;;;5029163;28;20443;-72
2021/12/31 05:44:06;;;;;;;25.30;11.30;;;19.90;56.60;;;;;;5029515;28;20449;-71
2021/12/31 05:46:32;;;;;;;23.07;10.20;;;19.50;56.40;;;;;;5018034;28;20431;-72
2021/12/31 05:48:58;;;;;;;20.23;10.27;;;19.90;56.60;;;;;;5024033;28;20873;-72
2021/12/31 05:51:26;;;;;;;20.37;10.70;;;19.90;56.60;;;;;;5021737;28;20610;-72
2021/12/31 05:53:52;;;;;;;20.00;9.77;;;19.80;68.20;;;;;;5019790;28;20173;-72
2021/12/31 05:56:17;;;;;;;21.63;10.13;;;19.90;56.70;;;;;;5023236;28;20466;-72
2021/12/31 05:58:43;;;;;;;17.10;9.50;;;19.90;56.70;;;;;;5022012;28;20907;-72
2021/12/31 06:01:09;;;;;;;20.97;10.97;;;19.90;56.60;;;;;;5022193;28;20192;-72
2021/12/31 06:03:34;;;;;;;19.63;10.30;;;19.90;57.20;;;;;;5024400;28;20185;-72
2021/12/31 06:06:00;;;;;;;23.57;9.53;;;19.80;56.60;;;;;;5022093;28;20581;-72
2021/12/31 06:08:25;;;;;;;24.10;11.10;;;19.90;57.20;;;;;;5019674;28;20275;-72
2021/12/31 06:10:51;;;;;;;15.90;9.07;;;19.80;56.60;;;;;;5020813;28;20176;-72
2021/12/31 06:13:17;;;;;;;21.83;9.70;;;19.90;56.60;;;;;;5020020;28;20227;-72
2021/12/31 06:15:42;;;;;;;20.00;10.00;;;19.90;56.60;;;;;;5018153;28;20217;-72
2021/12/31 06:18:09;;;;;;;17.13;9.13;;;19.80;56.60;;;;;;5024463;28;20223;-72
2021/12/31 06:20:36;;;;;;;16.50;8.87;;;19.80;56.60;;;;;;5031625;28;20184;-72
2021/12/31 06:23:01;;;;;;;19.80;10.40;;;19.90;56.60;;;;;;5039884;28;20797;-72
2021/12/31 06:25:27;;;;;;;17.90;9.03;;;20.10;56.80;;;;;;5035424;28;20454;-73
2021/12/31 06:27:53;;;;;;;19.37;9.53;;;19.90;56.60;;;;;;5035528;28;20175;-72
2021/12/31 06:30:19;;;;;;;15.40;8.80;;;20.00;56.70;;;;;;5039222;28;20472;-72
2021/12/31 06:32:45;;;;;;;16.60;8.70;;;19.90;56.60;;;;;;5038090;28;20194;-72
2021/12/31 06:35:11;;;;;;;19.73;8.77;;;19.80;56.60;;;;;;5029425;28;21168;-72
2021/12/31 06:37:37;;;;;;;18.90;8.63;;;19.80;56.60;;;;;;5027388;28;20207;-72
2021/12/31 06:40:06;;;;;;;17.07;8.67;;;20.20;56.80;;;;;;5022246;28;20200;-72
2021/12/31 06:42:34;;;;;;;14.27;8.13;;;19.90;56.60;;;;;;5024350;28;20415;-73
2021/12/31 06:44:59;;;;;;;15.00;8.33;;;19.90;56.60;;;;;;5023098;28;20450;-72
2021/12/31 06:47:25;;;;;;;17.13;8.73;;;20.00;56.70;;;;;;5025890;28;20415;-72
2021/12/31 06:49:50;;;;;;;14.47;8.37;;;19.80;56.60;;;;;;5023637;28;20212;-72
2021/12/31 06:52:16;;;;;;;14.10;7.60;;;19.90;57.20;;;;;;5022827;28;20195;-72
2021/12/31 06:54:42;;;;;;;16.10;8.10;;;19.90;56.60;;;;;;5028287;28;20688;-73
2021/12/31 06:57:07;;;;;;;14.27;8.30;;;19.80;56.60;;;;;;5022500;28;20212;-72
2021/12/31 06:59:33;;;;;;;16.90;7.90;;;19.80;56.60;;;;;;5029091;28;20184;-72
2021/12/31 07:01:58;;;;;;;16.23;8.37;;;19.80;56.60;;;;;;5024686;28;20188;-72
2021/12/31 07:04:24;;;;;;;12.50;8.20;;;19.90;56.60;;;;;;5027610;28;20250;-72
2021/12/31 07:06:50;;;;;;;20.07;8.20;;;19.80;56.60;;;;;;5020026;28;20188;-72
2021/12/31 07:09:16;;;;;;;15.40;8.60;;;19.80;56.60;;;;;;5024863;28;20417;-72
2021/12/31 07:11:41;;;;;;;14.33;7.70;;;19.80;56.60;;;;;;5029040;28;20434;-72
2021/12/31 07:14:07;;;;;;;13.13;8.63;;;19.80;56.60;;;;;;5028781;28;20822;-72
2021/12/31 07:16:33;;;;;;;14.97;8.50;;;19.80;56.60;;;;;;5022064;28;20219;-71
2021/12/31 07:18:58;;;;;;;16.93;8.37;;;19.90;56.60;;;;;;5027720;28;20200;-72
2021/12/31 07:21:24;;;;;;;15.13;7.80;;;19.90;56.70;;;;;;5028845;28;20165;-72
2021/12/31 07:23:50;;;;;;;10.03;6.67;;;19.80;68.10;;;;;;5029301;28;20199;-72
2021/12/31 07:26:15;;;;;;;11.83;8.10;;;19.80;56.60;;;;;;5022096;28;20271;-72
2021/12/31 07:28:41;;;;;;;14.73;8.20;;;20.20;56.80;;;;;;5020009;28;20204;-72
2021/12/31 07:31:11;;;;;;;11.50;6.17;;;19.80;56.60;;;;;;5019298;28;20275;-72
2021/12/31 07:33:37;;;;;;;13.10;7.93;;;19.90;56.60;;;;;;5023595;28;20277;-71
2021/12/31 07:36:03;;;;;;;16.40;7.50;;;19.80;57.10;;;;;;5027102;28;20998;-72
2021/12/31 07:38:33;;;;;;;14.13;7.70;;;19.80;56.60;;;;;;5027857;28;20629;-72
2021/12/31 07:40:59;;;;;;;11.50;6.77;;;19.80;56.60;;;;;;5023090;28;20667;-72
2021/12/31 07:43:24;;;;;;;12.90;7.10;;;20.00;56.60;;;;;;5028790;28;20415;-72
2021/12/31 07:45:51;;;;;;;14.37;6.77;;;19.90;56.60;;;;;;5028735;28;20209;-72
2021/12/31 07:48:17;;;;;;;9.13;6.53;;;19.80;56.50;;;;;;5030591;28;20255;-72
2021/12/31 07:50:43;;;;;;;13.23;6.50;;;20.80;57.10;;;;;;5033114;28;20403;-72
2021/12/31 07:53:09;;;;;;;14.70;7.17;;;19.90;56.60;;;;;;5032409;28;20514;-72
2021/12/31 07:55:35;;;;;;;9.40;6.37;;;19.80;56.60;;;;;;5032650;28;20192;-72
2021/12/31 07:58:01;;;;;;;10.10;6.57;;;19.80;56.50;;;;;;5032570;28;20765;-72
2021/12/31 08:00:27;;;;;;;10.50;6.80;;;19.80;56.50;;;;;;5031896;28;20443;-72
2021/12/31 08:02:57;;;;;;;11.63;7.30;;;19.80;56.60;;;;;;5032159;28;20446;-72
2021/12/31 08:05:24;;;;;;;10.20;6.67;;;19.80;56.50;;;;;;5032548;28;20193;-72
2021/12/31 08:07:50;;;;;;;14.60;7.63;;;19.80;56.50;;;;;;5031875;28;20411;-72
2021/12/31 08:10:15;;;;;;;11.20;6.90;;;19.80;56.50;;;;;;5031959;28;20412;-72
2021/12/31 08:12:41;;;;;;;11.90;8.03;;;19.80;56.50;;;;;;5033944;28;20572;-72
2021/12/31 08:15:07;;;;;;;10.90;6.40;;;19.80;56.50;;;;;;5031989;28;20566;-72
2021/12/31 08:17:33;;;;;;;11.10;6.87;;;19.80;56.50;;;;;;5031809;28;20326;-72
2021/12/31 08:19:58;;;;;;;10.77;6.83;;;19.80;56.50;;;;;;5031797;28;20446;-72
2021/12/31 08:22:24;;;;;;;8.87;6.40;;;19.80;56.50;;;;;;5031533;28;20177;-72
2021/12/31 08:24:51;;;;;;;10.20;5.90;;;19.80;56.50;;;;;;5029942;28;20200;-72
2021/12/31 08:27:17;;;;;;;8.80;5.57;;;19.90;56.60;;;;;;5031381;28;20418;-72
2021/12/31 08:29:42;;;;;;;10.40;5.80;;;19.80;56.50;;;;;;5031648;28;20892;-72
2021/12/31 08:32:08;;;;;;;7.47;5.43;;;19.40;56.30;;;;;;5031658;28;20246;-72
2021/12/31 08:34:33;;;;;;;8.43;5.90;;;19.80;56.50;;;;;;5031495;28;20224;-72
2021/12/31 08:36:59;;;;;;;8.13;5.20;;;19.80;56.50;;;;;;5031398;28;20199;-72
2021/12/31 08:39:25;;;;;;;9.33;5.43;;;19.80;56.50;;;;;;5031707;28;20176;-72
2021/12/31 08:41:51;;;;;;;7.10;5.37;;;19.80;56.60;;;;;;5032374;28;20180;-72
2021/12/31 08:44:17;;;;;;;12.47;5.83;;;19.80;56.50;;;;;;5032598;28;20231;-73
2021/12/31 08:46:43;;;;;;;8.77;5.23;;;19.80;56.50;;;;;;5032533;28;20492;-72
2021/12/31 08:49:09;;;;;;;9.60;6.37;;;19.80;56.60;;;;;;5032140;28;20417;-72
2021/12/31 08:51:35;;;;;;;8.03;5.73;;;19.80;56.50;;;;;;5028131;28;20522;-72
2021/12/31 08:54:01;;;;;;;11.30;5.40;;;19.80;56.50;;;;;;5031373;28;20204;-71
2021/12/31 08:56:26;;;;;;;10.07;6.47;;;19.80;56.50;;;;;;5031035;28;20458;-71
2021/12/31 08:58:52;;;;;;;10.23;5.93;;;19.70;56.50;;;;;;5030836;28;20184;-73
2021/12/31 09:01:18;;;;;;;8.67;5.07;;;20.90;57.10;;;;;;5021812;28;20185;-74
2021/12/31 09:03:44;;;;;;;3.67;3.37;;;19.40;61.50;;;;;;5028041;28;20177;-74
2021/12/31 09:06:09;;;;;;;3.43;3.23;;;19.60;54.70;;;;;;5031464;28;20632;-74
2021/12/31 09:08:35;;;;;;;2.30;2.10;;;19.60;54.60;;;;;;5031491;28;20263;-73
2021/12/31 09:11:01;;;;;;;2.27;2.03;;;19.50;54.20;;;;;;5032769;28;20260;-72
2021/12/31 09:13:28;;;;;;;2.17;1.97;;;19.50;54.00;;;;;;5044944;28;20220;-72
2021/12/31 09:15:54;;;;;;;2.00;1.90;;;19.00;54.50;;;;;;5031141;28;20893;-72
2021/12/31 09:18:20;;;;;;;1.77;1.67;;;18.90;55.00;;;;;;5031153;28;20503;-72
2021/12/31 09:20:46;;;;;;;1.73;1.63;;;19.30;55.50;;;;;;5014011;28;20423;-71
2021/12/31 09:23:12;;;;;;;1.87;1.77;;;19.00;55.50;;;;;;5011251;28;20935;-72
2021/12/31 09:25:38;;;;;;;1.80;1.70;;;19.00;55.50;;;;;;5011214;28;20598;-71
2021/12/31 09:28:03;;;;;;;11.43;1.93;;;19.30;55.80;;;;;;5011298;28;20414;-72
2021/12/31 09:30:29;;;;;;;1.93;1.83;;;19.10;55.60;;;;;;5011222;28;20668;-71
2021/12/31 09:32:55;;;;;;;2.17;2.07;;;19.30;55.80;;;;;;5021121;28;20192;-71
2021/12/31 09:35:20;;;;;;;2.77;2.57;;;19.30;55.70;;;;;;5029253;28;20266;-72
2021/12/31 09:37:46;;;;;;;1.70;1.60;;;18.10;55.00;;;;;;5030711;28;20197;-71
2021/12/31 09:40:15;;;;;;;1.20;1.20;;;19.50;55.70;;;;;;5029167;28;20449;-71
2021/12/31 09:43:08;;;;;;;2.20;1.67;;;19.30;55.60;;;;;;5030636;28;20210;-71
2021/12/31 09:45:39;;;;;;;2.23;2.13;;;19.60;55.80;;;;;;5030829;28;20432;-72
2021/12/31 09:48:13;;;;;;;1.80;1.70;;;19.40;55.60;;;;;;5030846;28;20899;-71
2021/12/31 09:50:41;;;;;;;4.27;1.93;;;19.40;55.50;;;;;;5030668;28;20415;-71
2021/12/31 09:53:08;;;;;;;1.40;1.40;;;19.40;55.50;;;;;;5030497;28;21039;-72
2021/12/31 09:55:54;;;;;;;4.73;1.90;;;19.40;55.50;;;;;;5029247;28;20788;-71
2021/12/31 09:58:24;;;;;;;1.77;1.33;;;19.40;55.50;;;;;;5024325;28;20423;-71
2021/12/31 10:00:57;;;;;;;1.63;1.53;;;19.00;55.40;;;;;;5026521;28;20408;-72
2021/12/31 10:03:28;;;;;;;2.00;1.90;;;19.50;56.20;;;;;;5030325;28;20399;-72
2021/12/31 10:06:12;;;;;;;1.30;1.30;;;19.50;55.60;;;;;;5030428;28;20840;-72
2021/12/31 10:08:44;;;;;;;2.43;2.23;;;19.50;55.60;;;;;;5030179;28;20403;-72
2021/12/31 10:11:21;;;;;;;1.83;1.70;;;19.50;55.60;;;;;;5027577;28;20415;-72
2021/12/31 10:13:55;;;;;;;2.00;1.80;;;19.70;63.60;;;;;;5032959;28;20414;-72
2021/12/31 10:16:24;;;;;;;1.37;1.37;;;19.80;55.80;;;;;;5024127;28;20951;-72
2021/12/31 10:19:03;;;;;;;2.00;1.90;;;19.50;55.50;;;;;;5026760;28;20419;-71
2021/12/31 10:21:41;;;;;;;2.53;1.90;;;19.50;55.60;;;;;;5025299;28;20531;-72
2021/12/31 10:24:33;;;;;;;1.97;1.50;;;20.00;55.90;;;;;;5023078;28;20439;-72
2021/12/31 10:27:02;;;;;;;2.17;2.07;;;19.60;55.70;;;;;;5020259;28;20435;-72
2021/12/31 10:29:28;;;;;;;1.80;1.70;;;19.60;55.80;;;;;;5023081;28;20420;-72
2021/12/31 10:31:54;;;;;;;2.00;1.90;;;19.60;55.70;;;;;;5022779;28;20506;-72
2021/12/31 10:34:31;;;;;;;1.40;1.30;;;19.60;55.70;;;;;;5025108;28;20298;-72
2021/12/31 10:37:03;;;;;;;1.50;1.50;;;19.60;55.70;;;;;;5018851;28;20460;-72
2021/12/31 10:39:32;;;;;;;1.60;1.50;;;19.60;55.70;;;;;;5026393;28;20464;-72
2021/12/31 10:42:02;;;;;;;1.70;1.60;;;19.80;55.90;;;;;;5015675;28;20921;-73
2021/12/31 10:44:40;;;;;;;3.63;1.83;;;19.60;55.90;;;;;;5013805;28;20515;-72
2021/12/31 10:47:11;;;;;;;1.70;1.70;;;19.60;55.90;;;;;;5023469;28;20975;-72
2021/12/31 10:49:55;;;;;;;1.77;1.67;;;19.60;55.90;;;;;;5029774;28;20442;-72
2021/12/31 10:52:27;;;;;;;1.80;1.70;;;19.70;55.90;;;;;;5023598;28;20924;-72
2021/12/31 10:55:15;;;;;;;2.10;1.93;;;19.70;56.00;;;;;;5028067;28;20758;-72
2021/12/31 10:57:41;;;;;;;2.13;1.40;;;19.60;56.50;;;;;;5029154;28;20490;-72
2021/12/31 11:00:08;;;;;;;1.80;1.70;;;19.70;56.10;;;;;;5029521;28;20442;-72
2021/12/31 11:02:36;;;;;;;1.73;1.70;;;19.70;56.10;;;;;;5029015;28;20518;-72
2021/12/31 11:05:02;;;;;;;3.33;1.90;;;20.00;56.30;;;;;;5029128;28;20612;-72
2021/12/31 11:07:29;;;;;;;2.10;2.00;;;19.70;56.20;;;;;;5029133;28;20772;-71
2021/12/31 11:09:59;;;;;;;2.23;1.40;;;19.90;56.30;;;;;;5029127;28;20480;-72
2021/12/31 11:12:26;;;;;;;1.40;1.40;;;19.70;56.20;;;;;;5014795;28;20721;-73
2021/12/31 11:14:52;;;;;;;1.57;1.47;;;20.00;56.30;;;;;;5007048;28;20890;-73
2021/12/31 11:17:18;;;;;;;1.60;1.50;;;19.80;56.30;;;;;;5018872;28;21075;-73
2021/12/31 11:19:45;;;;;;;3.03;1.93;;;19.80;56.50;;;;;;5013420;28;20502;-73
2021/12/31 11:22:14;;;;;;;1.80;1.33;;;19.80;56.70;;;;;;5010994;28;20595;-73
2021/12/31 11:24:40;;;;;;;1.40;1.30;;;19.80;56.80;;;;;;5023359;28;20546;-73
2021/12/31 11:27:35;;;;;;;1.60;1.50;;;19.80;57.00;;;;;;5029186;28;20450;-73
2021/12/31 11:30:03;;;;;;;1.53;1.43;;;19.80;57.00;;;;;;5028588;28;20576;-73
2021/12/31 11:32:56;;;;;;;2.00;1.60;;;19.80;57.10;;;;;;5023036;28;20435;-73
2021/12/31 11:35:44;;;;;;;3.00;1.30;;;19.90;57.40;;;;;;5022664;28;20974;-73
2021/12/31 11:38:23;;;;;;;1.93;1.10;;;19.90;57.30;;;;;;5028729;28;20459;-72
2021/12/31 11:41:02;;;;;;;2.43;1.60;;;19.90;57.40;;;;;;5027612;28;20561;-72
2021/12/31 11:43:30;;;;;;;2.00;1.90;;;19.90;57.50;;;;;;5014703;28;20510;-73
2021/12/31 11:46:11;;;;;;;10.33;2.50;;;19.90;57.50;;;;;;5009622;28;21018;-73
2021/12/31 11:51:12;;;;;;;4.90;2.03;;;19.90;57.60;;;;;;5024751;28;20410;-73
2021/12/31 11:54:08;;;;;;;4.00;1.80;;;19.90;57.70;;;;;;5028680;28;20449;-72
2021/12/31 11:56:36;;;;;;;3.33;1.47;;;20.00;57.70;;;;;;5007510;28;20543;-72
2021/12/31 11:59:07;;;;;;;2.60;2.00;;;20.00;57.70;;;;;;5014702;28;20424;-72
2021/12/31 12:01:39;;;;;;;4.60;2.63;;;20.00;57.50;;;;;;5019122;28;20419;-73
2021/12/31 12:04:29;;;;;;;2.60;2.23;;;20.00;57.50;;;;;;5025576;28;20455;-73
2021/12/31 12:07:10;;;;;;;6.47;2.57;;;20.00;57.50;;;;;;5014163;28;20463;-73
2021/12/31 12:09:35;;;;;;;3.00;2.13;;;20.00;57.50;;;;;;5023531;28;20540;-73
2021/12/31 12:12:10;;;;;;;4.43;2.17;;;20.10;57.10;;;;;;5032340;28;20769;-73
2021/12/31 12:14:47;;;;;;;5.13;1.80;;;20.00;57.60;;;;;;5022939;28;20212;-73
2021/12/31 12:17:31;;;;;;;3.10;2.23;;;20.30;57.70;;;;;;5013327;28;20466;-73
2021/12/31 12:20:02;;;;;;;7.33;2.27;;;20.20;57.70;;;;;;5027478;28;20476;-71
2021/12/31 12:22:33;;;;;;;4.30;1.63;;;20.20;57.60;;;;;;5020412;28;20427;-74
2021/12/31 12:25:13;;;;;;;2.40;2.13;;;20.30;57.60;;;;;;5016774;28;20448;-69
2021/12/31 12:27:39;;;;;;;6.10;2.70;;;20.40;57.50;;;;;;5023042;28;20950;-66
2021/12/31 12:30:08;;;;;;;5.30;2.07;;;20.50;57.20;;;;;;5028390;28;20538;-66
2021/12/31 12:32:50;;;;;;;6.00;1.93;;;20.60;57.00;;;;;;5028523;28;20191;-68
2021/12/31 12:35:25;;;;;;;4.53;1.97;;;20.50;56.60;;;;;;5025351;28;20450;-69
2021/12/31 12:37:57;;;;;;;3.40;2.00;;;20.60;56.50;;;;;;5026818;28;20957;-70
2021/12/31 12:40:38;;;;;;;2.50;2.10;;;20.70;56.50;;;;;;5020543;28;20476;-70
2021/12/31 12:43:18;;;;;;;10.97;1.87;;;20.60;56.40;;;;;;5023046;28;20423;-72